METAR Data
IDs: Format: Raw Decoded Include TAF

Data at: 0243 UTC 25 Feb 2021

FMEP 250230Z AUTO 04008KT CAVOK 25/14 Q1011 BECMG 23010KT